createdAt,value
2023-05-05T00:00:01.878Z,16.67
2023-05-05T00:02:30.431Z,15.32
2023-05-05T00:04:59.052Z,14.40
2023-05-05T00:07:27.597Z,12.35
2023-05-05T00:09:55.823Z,16.95
2023-05-05T00:12:24.399Z,18.30
2023-05-05T00:14:52.924Z,17.48
2023-05-05T00:17:21.145Z,15.68
2023-05-05T00:19:50.264Z,14.00
2023-05-05T00:22:18.364Z,14.18
2023-05-05T00:24:46.557Z,15.07
2023-05-05T00:27:15.158Z,14.20
2023-05-05T00:29:43.634Z,11.55
2023-05-05T00:32:11.859Z,12.32
2023-05-05T00:34:39.894Z,14.15
2023-05-05T00:37:08.577Z,13.25
2023-05-05T00:39:36.762Z,13.85
2023-05-05T00:42:04.900Z,15.85
2023-05-05T00:44:41.067Z,14.40
2023-05-05T00:47:10.307Z,17.88
2023-05-05T00:49:40.124Z,13.05
2023-05-05T00:52:10.378Z,14.90
2023-05-05T00:54:39.470Z,14.15
2023-05-05T00:57:08.206Z,13.88
2023-05-05T00:59:37.511Z,14.27
2023-05-05T01:02:05.960Z,14.75
2023-05-05T01:04:34.094Z,16.75
2023-05-05T01:07:04.019Z,13.65
2023-05-05T01:10:19.831Z,15.13
2023-05-05T01:12:55.945Z,14.32
2023-05-05T01:15:33.803Z,16.13
2023-05-05T01:18:27.762Z,11.93
2023-05-05T01:21:27.706Z,13.18
2023-05-05T01:23:56.490Z,14.00
2023-05-05T01:26:34.773Z,13.80
2023-05-05T01:29:23.167Z,15.80
2023-05-05T01:31:59.969Z,16.20
2023-05-05T01:34:45.755Z,12.18
2023-05-05T01:37:27.596Z,15.02
2023-05-05T01:40:02.421Z,14.50
2023-05-05T01:42:34.712Z,15.68
2023-05-05T01:45:08.507Z,21.38
2023-05-05T01:47:39.516Z,16.13
2023-05-05T01:50:09.383Z,15.32
2023-05-05T01:52:40.348Z,17.05
2023-05-05T01:55:11.346Z,13.15
2023-05-05T01:57:42.411Z,13.48
2023-05-05T02:00:12.081Z,13.60
2023-05-05T02:02:47.826Z,15.10
2023-05-05T02:05:19.426Z,17.23
2023-05-05T02:07:51.217Z,16.95
2023-05-05T02:10:41.049Z,14.00
2023-05-05T02:13:15.719Z,13.75
2023-05-05T02:15:45.026Z,15.07
2023-05-05T02:18:15.095Z,16.45
2023-05-05T02:20:44.547Z,12.82
2023-05-05T02:23:13.034Z,13.20
2023-05-05T02:25:49.812Z,14.98
2023-05-05T02:28:23.223Z,12.82
2023-05-05T02:33:32.665Z,14.07
2023-05-05T02:36:17.524Z,13.80
2023-05-05T02:39:03.607Z,15.88
2023-05-05T02:41:40.296Z,11.18
2023-05-05T02:44:25.001Z,14.35
2023-05-05T02:46:55.511Z,14.43
2023-05-05T02:49:25.214Z,12.95
2023-05-05T02:51:59.202Z,15.05
2023-05-05T02:54:32.828Z,15.45
2023-05-05T02:57:03.197Z,14.18
2023-05-05T02:59:47.351Z,12.23
2023-05-05T03:02:28.905Z,14.50
2023-05-05T03:05:10.006Z,14.20
2023-05-05T03:08:00.931Z,15.82
2023-05-05T03:10:39.854Z,17.20
2023-05-05T03:13:11.162Z,18.17
2023-05-05T03:15:53.073Z,18.27
2023-05-05T03:18:26.046Z,17.65
2023-05-05T03:21:10.860Z,16.48
2023-05-05T03:23:42.710Z,16.50
2023-05-05T03:26:19.248Z,16.73
2023-05-05T03:28:48.067Z,16.13
2023-05-05T03:31:25.600Z,12.57
2023-05-05T03:33:58.216Z,15.20
2023-05-05T03:36:30.684Z,13.25
2023-05-05T03:39:00.505Z,21.20
2023-05-05T03:41:33.231Z,15.85
2023-05-05T03:44:01.915Z,14.77
2023-05-05T03:46:31.309Z,14.05
2023-05-05T03:48:59.256Z,15.63
2023-05-05T03:51:28.662Z,12.93
2023-05-05T03:53:57.946Z,12.95
2023-05-05T03:56:26.915Z,14.45
2023-05-05T03:58:54.966Z,14.45
2023-05-05T04:01:23.641Z,15.10
2023-05-05T04:03:52.912Z,14.00
2023-05-05T04:06:21.789Z,14.13
2023-05-05T04:08:50.473Z,12.77
2023-05-05T04:11:18.699Z,14.35
2023-05-05T04:13:48.570Z,14.80
2023-05-05T04:16:16.924Z,11.48
2023-05-05T04:18:46.408Z,11.18
2023-05-05T04:21:14.894Z,13.85
2023-05-05T04:23:43.010Z,11.93
2023-05-05T04:26:12.661Z,12.93
2023-05-05T04:28:40.663Z,11.18
2023-05-05T04:31:10.742Z,11.52
2023-05-05T04:33:42.281Z,11.65
2023-05-05T04:36:11.240Z,12.68
2023-05-05T04:38:40.154Z,11.95
2023-05-05T04:41:09.302Z,11.75
2023-05-05T04:43:40.123Z,12.52
2023-05-05T04:46:08.165Z,11.50
2023-05-05T04:48:38.622Z,11.82
2023-05-05T04:51:08.102Z,10.57
2023-05-05T04:53:38.009Z,16.58
2023-05-05T04:56:06.298Z,10.02
2023-05-05T04:58:34.251Z,11.50
2023-05-05T05:01:03.483Z,11.38
2023-05-05T05:03:32.321Z,9.50
2023-05-05T05:06:00.775Z,10.10
2023-05-05T05:08:29.583Z,8.55
2023-05-05T05:10:59.317Z,9.13
2023-05-05T05:13:27.885Z,11.27
2023-05-05T05:15:56.060Z,10.10
2023-05-05T05:18:24.723Z,9.32
2023-05-05T05:20:53.314Z,9.13
2023-05-05T05:23:21.532Z,7.88
2023-05-05T05:25:50.985Z,6.50
2023-05-05T05:28:21.150Z,8.20
2023-05-05T05:30:55.288Z,8.45
2023-05-05T05:33:24.057Z,9.95
2023-05-05T05:35:53.264Z,8.73
2023-05-05T05:38:22.488Z,9.30
2023-05-05T05:40:54.652Z,12.00
2023-05-05T05:43:24.156Z,10.98
2023-05-05T05:45:53.167Z,9.82
2023-05-05T05:48:24.921Z,8.18
2023-05-05T05:50:54.008Z,8.10
2023-05-05T05:53:22.660Z,12.95
2023-05-05T05:55:52.492Z,9.00
2023-05-05T05:58:21.244Z,6.20
2023-05-05T06:00:50.050Z,9.05
2023-05-05T06:03:18.492Z,7.80
2023-05-05T06:05:47.499Z,8.77
2023-05-05T06:08:16.654Z,10.57
2023-05-05T06:13:20.355Z,9.30
2023-05-05T06:15:52.020Z,9.35
2023-05-05T06:18:20.515Z,9.13
2023-05-05T06:20:52.533Z,8.85
2023-05-05T06:23:23.770Z,7.35
2023-05-05T06:25:58.299Z,8.98
2023-05-05T06:28:27.346Z,8.77
2023-05-05T06:30:56.593Z,8.10
2023-05-05T06:33:24.568Z,10.20
2023-05-05T06:35:53.450Z,9.35
2023-05-05T06:38:22.406Z,9.57
2023-05-05T06:40:51.041Z,8.68
2023-05-05T06:43:20.210Z,9.25
2023-05-05T06:45:55.344Z,11.50
2023-05-05T06:48:23.959Z,7.30
2023-05-05T06:50:52.289Z,7.85
2023-05-05T06:53:20.979Z,6.22
2023-05-05T06:55:49.020Z,6.25
2023-05-05T06:58:18.032Z,6.45
2023-05-05T07:00:46.091Z,7.00
2023-05-05T07:03:15.071Z,6.22
2023-05-05T07:05:44.576Z,8.05
2023-05-05T07:08:13.657Z,5.70
2023-05-05T07:10:42.921Z,6.65
2023-05-05T07:13:11.193Z,7.10
2023-05-05T07:15:46.453Z,7.47
2023-05-05T07:18:15.406Z,8.38
2023-05-05T07:20:44.583Z,7.35
2023-05-05T07:23:13.985Z,6.72
2023-05-05T07:25:42.106Z,6.25
2023-05-05T07:28:11.604Z,7.57
2023-05-05T07:30:40.132Z,6.35
2023-05-05T07:33:09.171Z,7.10
2023-05-05T07:35:40.136Z,8.18
2023-05-05T07:38:10.804Z,6.20
2023-05-05T07:40:39.566Z,7.43
2023-05-05T07:43:07.976Z,7.53
2023-05-05T07:45:36.580Z,8.18
2023-05-05T07:48:05.268Z,9.05
2023-05-05T07:50:33.787Z,6.65
2023-05-05T07:53:13.916Z,7.95
2023-05-05T07:55:44.220Z,7.00
2023-05-05T07:58:13.063Z,5.85
2023-05-05T08:00:41.635Z,6.90
2023-05-05T08:03:12.029Z,9.27
2023-05-05T08:05:40.848Z,7.20
2023-05-05T08:08:09.437Z,7.13
2023-05-05T08:10:38.398Z,6.80
2023-05-05T08:13:06.648Z,6.90
2023-05-05T08:15:35.661Z,4.78
2023-05-05T08:18:04.430Z,6.68
2023-05-05T08:20:33.033Z,5.20
2023-05-05T08:23:01.933Z,7.28
2023-05-05T08:25:30.441Z,6.38
2023-05-05T08:27:58.413Z,5.43
2023-05-05T08:30:29.692Z,6.03
2023-05-05T08:32:59.453Z,7.38
2023-05-05T08:35:28.398Z,6.30
2023-05-05T08:37:58.899Z,5.63
2023-05-05T08:40:33.308Z,6.82
2023-05-05T08:43:02.088Z,6.32
2023-05-05T08:45:32.228Z,5.55
2023-05-05T08:48:05.841Z,7.05
2023-05-05T08:50:34.442Z,5.18
2023-05-05T08:53:17.059Z,5.78
2023-05-05T08:55:52.107Z,6.75
2023-05-05T08:58:21.928Z,5.78
2023-05-05T09:00:51.899Z,7.47
2023-05-05T09:03:21.272Z,6.07
2023-05-05T09:05:51.141Z,7.70
2023-05-05T09:08:21.564Z,7.30
2023-05-05T09:10:51.936Z,5.32
2023-05-05T09:13:30.258Z,7.00
2023-05-05T09:15:59.751Z,6.65
2023-05-05T09:18:29.197Z,6.32
2023-05-05T09:20:59.390Z,5.25
2023-05-05T09:23:28.414Z,5.88
2023-05-05T09:26:09.065Z,6.20
2023-05-05T09:28:37.706Z,5.85
2023-05-05T09:31:14.090Z,7.20
2023-05-05T09:33:43.889Z,5.70
2023-05-05T09:36:12.425Z,6.60
2023-05-05T09:38:40.846Z,5.35
2023-05-05T09:41:09.531Z,6.90
2023-05-05T09:43:59.107Z,8.80
2023-05-05T09:46:27.773Z,5.88
2023-05-05T09:48:56.797Z,7.50
2023-05-05T09:51:31.848Z,6.15
2023-05-05T09:54:00.546Z,6.00
2023-05-05T09:56:41.322Z,5.95
2023-05-05T09:59:11.085Z,4.65
2023-05-05T10:01:39.809Z,6.05
2023-05-05T10:04:08.284Z,6.22
2023-05-05T10:06:43.663Z,5.90
2023-05-05T10:09:12.265Z,7.85
2023-05-05T10:11:42.856Z,6.63
2023-05-05T10:14:15.169Z,5.90
2023-05-05T10:16:52.694Z,5.47
2023-05-05T10:19:23.028Z,6.60
2023-05-05T10:21:59.375Z,6.18
2023-05-05T10:24:47.847Z,6.63
2023-05-05T10:27:19.787Z,6.25
2023-05-05T10:30:07.772Z,6.30
2023-05-05T10:33:03.561Z,6.43
2023-05-05T10:35:40.940Z,25.35
2023-05-05T10:40:39.734Z,7.63
2023-05-05T10:43:08.460Z,6.57
2023-05-05T10:45:38.723Z,6.53
2023-05-05T10:48:13.062Z,4.68
2023-05-05T10:51:03.904Z,5.18
2023-05-05T10:53:43.000Z,5.53
2023-05-05T10:56:27.336Z,5.28
2023-05-05T10:59:00.208Z,5.72
2023-05-05T11:01:32.355Z,6.72
2023-05-05T11:04:20.000Z,5.95
2023-05-05T11:07:11.819Z,5.63
2023-05-05T11:10:01.615Z,4.32
2023-05-05T11:13:00.153Z,5.05
2023-05-05T11:15:31.617Z,4.10
2023-05-05T11:18:07.575Z,7.15
2023-05-05T11:20:40.142Z,7.38
2023-05-05T11:23:08.957Z,4.28
2023-05-05T11:25:41.331Z,5.40
2023-05-05T11:28:11.533Z,5.47
2023-05-05T11:30:56.032Z,4.57
2023-05-05T11:33:37.993Z,6.10
2023-05-05T11:36:09.369Z,5.60
2023-05-05T11:39:00.419Z,5.93
2023-05-05T11:41:32.509Z,7.78
2023-05-05T11:44:21.045Z,4.40
2023-05-05T11:46:52.716Z,5.88
2023-05-05T11:49:28.836Z,7.85
2023-05-05T11:51:58.774Z,4.70
2023-05-05T11:54:28.205Z,5.30
2023-05-05T11:57:09.373Z,4.68
2023-05-05T11:59:57.689Z,4.15
2023-05-05T12:02:30.342Z,7.43
2023-05-05T12:07:33.802Z,4.20
2023-05-05T12:10:03.109Z,5.10
2023-05-05T12:12:37.397Z,5.75
2023-05-05T12:15:08.279Z,5.20
2023-05-05T12:17:40.083Z,4.95
2023-05-05T12:20:11.165Z,6.47
2023-05-05T12:22:41.130Z,5.85
2023-05-05T12:25:10.695Z,6.22
2023-05-05T12:27:39.125Z,5.47
2023-05-05T12:30:16.573Z,6.32
2023-05-05T12:32:46.501Z,4.82
2023-05-05T12:35:16.189Z,5.07
2023-05-05T12:37:45.575Z,4.70
2023-05-05T12:40:48.925Z,4.20
2023-05-05T12:46:08.055Z,4.97
2023-05-05T12:48:39.036Z,5.22
2023-05-05T12:51:23.688Z,4.65
2023-05-05T12:54:23.897Z,5.30
2023-05-05T12:56:52.047Z,4.68
2023-05-05T12:59:24.597Z,4.55
2023-05-05T13:04:27.480Z,7.43
2023-05-05T13:07:14.047Z,5.50
2023-05-05T13:09:43.034Z,4.93
2023-05-05T13:12:12.489Z,7.00
2023-05-05T13:14:41.930Z,7.15
2023-05-05T13:17:12.021Z,5.88
2023-05-05T13:19:46.738Z,6.20
2023-05-05T13:22:16.673Z,5.88
2023-05-05T13:24:51.789Z,6.25
2023-05-05T13:27:21.456Z,4.72
2023-05-05T13:29:49.933Z,4.40
2023-05-05T13:32:19.044Z,4.10
2023-05-05T13:34:47.798Z,6.63
2023-05-05T13:37:16.129Z,6.30
2023-05-05T13:39:45.153Z,6.07
2023-05-05T13:42:13.376Z,8.30
2023-05-05T13:44:42.131Z,6.28
2023-05-05T13:47:11.647Z,19.17
2023-05-05T13:49:40.257Z,7.38
2023-05-05T13:52:08.938Z,4.90
2023-05-05T13:54:38.397Z,5.68
2023-05-05T13:57:08.153Z,5.80
2023-05-05T13:59:36.426Z,6.00
2023-05-05T14:02:04.577Z,6.30
2023-05-05T14:04:33.635Z,6.63
2023-05-05T14:07:02.952Z,7.88
2023-05-05T14:09:31.079Z,6.97
2023-05-05T14:11:59.599Z,6.25
2023-05-05T14:14:29.598Z,6.90
2023-05-05T14:16:58.323Z,6.53
2023-05-05T14:19:26.854Z,7.05
2023-05-05T14:21:55.623Z,7.65
2023-05-05T14:24:24.262Z,5.60
2023-05-05T14:26:53.411Z,5.65
2023-05-05T14:29:22.391Z,8.43
2023-05-05T14:31:50.587Z,5.78
2023-05-05T14:34:19.403Z,6.13
2023-05-05T14:36:47.611Z,5.20
2023-05-05T14:39:16.831Z,5.28
2023-05-05T14:41:45.222Z,4.35
2023-05-05T14:44:13.864Z,6.00
2023-05-05T14:46:43.565Z,4.72
2023-05-05T14:49:13.931Z,4.90
2023-05-05T14:51:43.246Z,5.65
2023-05-05T14:54:24.136Z,5.50
2023-05-05T14:56:56.637Z,5.07
2023-05-05T14:59:25.688Z,6.70
2023-05-05T15:01:54.405Z,7.85
2023-05-05T15:04:23.490Z,8.82
2023-05-05T15:06:52.400Z,6.80
2023-05-05T15:09:21.516Z,7.45
2023-05-05T15:11:50.225Z,7.45
2023-05-05T15:14:18.999Z,6.75
2023-05-05T15:16:47.914Z,6.70
2023-05-05T15:19:16.842Z,5.68
2023-05-05T15:21:45.061Z,5.97
2023-05-05T15:24:13.550Z,5.57
2023-05-05T15:26:42.092Z,6.30
2023-05-05T15:29:10.938Z,8.43
2023-05-05T15:31:39.760Z,8.73
2023-05-05T15:34:08.921Z,6.20
2023-05-05T15:36:37.116Z,7.47
2023-05-05T15:39:06.268Z,4.78
2023-05-05T15:41:34.950Z,7.90
2023-05-05T15:44:05.033Z,10.68
2023-05-05T15:46:34.811Z,6.43
2023-05-05T15:49:03.891Z,7.38
2023-05-05T15:51:33.204Z,8.10
2023-05-05T15:54:02.346Z,8.82
2023-05-05T15:56:30.970Z,6.60
2023-05-05T15:58:59.744Z,5.78
2023-05-05T16:01:27.858Z,6.60
2023-05-05T16:03:57.674Z,6.68
2023-05-05T16:06:27.382Z,10.77
2023-05-05T16:08:58.772Z,6.97
2023-05-05T16:11:28.101Z,7.18
2023-05-05T16:13:56.667Z,7.30
2023-05-05T16:16:25.447Z,7.40
2023-05-05T16:18:54.277Z,6.47
2023-05-05T16:21:23.065Z,7.32
2023-05-05T16:23:51.745Z,6.82
2023-05-05T16:26:21.259Z,7.07
2023-05-05T16:28:49.981Z,6.53
2023-05-05T16:31:18.520Z,8.27
2023-05-05T16:33:46.708Z,7.85
2023-05-05T16:36:15.453Z,7.50
2023-05-05T16:38:44.354Z,7.68
2023-05-05T16:41:13.264Z,9.50
2023-05-05T16:43:41.859Z,6.13
2023-05-05T16:46:11.342Z,5.82
2023-05-05T16:48:39.431Z,8.48
2023-05-05T16:51:08.849Z,7.63
2023-05-05T16:53:38.547Z,7.13
2023-05-05T16:56:07.753Z,8.25
2023-05-05T16:58:36.346Z,8.35
2023-05-05T17:01:06.027Z,8.68
2023-05-05T17:03:34.979Z,7.22
2023-05-05T17:06:03.989Z,8.57
2023-05-05T17:08:32.968Z,8.75
2023-05-05T17:11:02.103Z,8.57
2023-05-05T17:13:31.311Z,9.75
2023-05-05T17:15:59.408Z,7.30
2023-05-05T17:18:27.954Z,9.07
2023-05-05T17:20:57.495Z,10.90
2023-05-05T17:23:27.496Z,6.93
2023-05-05T17:25:59.099Z,11.65
2023-05-05T17:28:27.771Z,8.80
2023-05-05T17:30:59.666Z,10.15
2023-05-05T17:33:28.958Z,10.20
2023-05-05T17:35:57.783Z,10.98
2023-05-05T17:38:26.800Z,10.40
2023-05-05T17:40:55.691Z,9.32
2023-05-05T17:43:24.217Z,10.88
2023-05-05T17:45:53.414Z,10.57
2023-05-05T17:48:21.681Z,12.05
2023-05-05T17:50:51.179Z,12.40
2023-05-05T17:53:19.570Z,11.27
2023-05-05T17:55:48.594Z,13.55
2023-05-05T17:58:17.564Z,10.93
2023-05-05T18:00:46.340Z,10.02
2023-05-05T18:03:15.049Z,12.15
2023-05-05T18:05:43.626Z,9.95
2023-05-05T18:08:12.414Z,13.10
2023-05-05T18:10:41.352Z,12.90
2023-05-05T18:13:10.775Z,11.77
2023-05-05T18:15:40.360Z,10.73
2023-05-05T18:18:09.387Z,11.93
2023-05-05T18:20:38.467Z,14.55
2023-05-05T18:23:07.686Z,11.82
2023-05-05T18:25:36.853Z,12.15
2023-05-05T18:28:06.312Z,13.50
2023-05-05T18:30:35.782Z,11.45
2023-05-05T18:33:04.794Z,9.88
2023-05-05T18:35:33.584Z,13.85
2023-05-05T18:38:02.720Z,12.27
2023-05-05T18:40:31.854Z,12.90
2023-05-05T18:42:59.993Z,13.50
2023-05-05T18:45:28.669Z,13.55
2023-05-05T18:47:56.744Z,12.15
2023-05-05T18:50:26.005Z,11.95
2023-05-05T18:52:55.070Z,14.38
2023-05-05T18:55:24.006Z,14.38
2023-05-05T18:57:53.482Z,13.05
2023-05-05T19:00:21.849Z,13.15
2023-05-05T19:02:51.535Z,10.75
2023-05-05T19:05:20.135Z,10.35
2023-05-05T19:07:48.989Z,8.80
2023-05-05T19:10:17.235Z,10.27
2023-05-05T19:12:45.917Z,12.45
2023-05-05T19:15:14.136Z,14.10
2023-05-05T19:17:43.067Z,13.13
2023-05-05T19:20:12.239Z,16.70
2023-05-05T19:22:40.214Z,14.40
2023-05-05T19:25:09.364Z,11.30
2023-05-05T19:27:37.704Z,14.68
2023-05-05T19:30:07.863Z,15.88
2023-05-05T19:32:36.708Z,12.40
2023-05-05T19:35:06.905Z,11.88
2023-05-05T19:37:35.788Z,10.63
2023-05-05T19:40:04.291Z,12.32
2023-05-05T19:42:33.226Z,12.52
2023-05-05T19:45:03.052Z,12.02
2023-05-05T19:47:36.397Z,18.30
2023-05-05T19:50:05.315Z,12.27
2023-05-05T19:52:36.850Z,16.75
2023-05-05T19:55:05.839Z,17.20
2023-05-05T19:57:34.714Z,22.77
2023-05-05T20:00:04.165Z,15.68
2023-05-05T20:02:37.017Z,18.92
2023-05-05T20:05:05.833Z,18.20
2023-05-05T20:07:34.858Z,19.60
2023-05-05T20:10:04.054Z,21.83
2023-05-05T20:12:33.224Z,20.92
2023-05-05T20:15:01.690Z,17.95
2023-05-05T20:17:32.882Z,23.20
2023-05-05T20:20:01.535Z,26.25
2023-05-05T20:22:33.526Z,27.17
2023-05-05T20:25:02.893Z,25.50
2023-05-05T20:27:33.479Z,23.80
2023-05-05T20:30:03.313Z,22.08
2023-05-05T20:32:33.804Z,25.38
2023-05-05T20:35:04.734Z,21.77
2023-05-05T20:37:33.652Z,25.17
2023-05-05T20:40:02.922Z,32.42
2023-05-05T20:42:32.880Z,22.60
2023-05-05T20:45:02.435Z,20.08
2023-05-05T20:47:35.587Z,24.17
2023-05-05T20:50:04.428Z,22.50
2023-05-05T20:52:34.803Z,22.58
2023-05-05T20:55:04.096Z,18.67
2023-05-05T20:57:34.604Z,20.60
2023-05-05T21:00:04.213Z,18.08
2023-05-05T21:02:36.254Z,24.00
2023-05-05T21:05:05.351Z,26.00
2023-05-05T21:07:34.539Z,19.83
2023-05-05T21:10:04.090Z,12.05
2023-05-05T21:12:35.512Z,14.05
2023-05-05T21:15:04.631Z,11.07
2023-05-05T21:17:35.144Z,13.07
2023-05-05T21:20:03.918Z,15.05
2023-05-05T21:22:34.129Z,19.25
2023-05-05T21:25:14.947Z,20.85
2023-05-05T21:27:44.033Z,20.10
2023-05-05T21:30:13.107Z,21.15
2023-05-05T21:32:42.531Z,18.60
2023-05-05T21:35:11.295Z,18.33
2023-05-05T21:37:40.587Z,18.30
2023-05-05T21:40:11.339Z,16.98
2023-05-05T21:42:41.360Z,18.58
2023-05-05T21:45:11.301Z,19.27
2023-05-05T21:47:39.979Z,14.38
2023-05-05T21:50:10.679Z,12.95
2023-05-05T21:52:39.354Z,12.52
2023-05-05T21:55:08.461Z,13.75
2023-05-05T21:57:36.709Z,10.65
2023-05-05T22:00:06.501Z,10.85
2023-05-05T22:02:42.274Z,11.00
2023-05-05T22:05:10.850Z,11.63
2023-05-05T22:07:58.124Z,8.52
2023-05-05T22:13:00.358Z,8.02
2023-05-05T22:15:32.974Z,11.65
2023-05-05T22:18:11.660Z,13.07
2023-05-05T22:20:40.927Z,11.52
2023-05-05T22:23:10.066Z,9.98
2023-05-05T22:25:38.652Z,12.50
2023-05-05T22:28:07.217Z,11.63
2023-05-05T22:30:35.940Z,11.88
2023-05-05T22:33:04.250Z,10.95
2023-05-05T22:35:32.797Z,10.50
2023-05-05T22:38:01.645Z,11.57
2023-05-05T22:40:30.794Z,14.27
2023-05-05T22:42:59.760Z,12.80
2023-05-05T22:45:28.511Z,12.55
2023-05-05T22:47:57.425Z,12.15
2023-05-05T22:50:26.030Z,8.95
2023-05-05T22:52:54.288Z,9.75
2023-05-05T22:55:24.496Z,10.95
2023-05-05T22:57:52.792Z,12.25
2023-05-05T23:00:21.564Z,11.70
2023-05-05T23:02:50.562Z,11.90
2023-05-05T23:05:19.452Z,16.08
2023-05-05T23:07:47.440Z,13.25
2023-05-05T23:10:15.793Z,14.77
2023-05-05T23:12:44.852Z,10.95
2023-05-05T23:15:13.467Z,9.98
2023-05-05T23:17:41.704Z,10.70
2023-05-05T23:20:13.325Z,12.90
2023-05-05T23:22:42.219Z,15.85
2023-05-05T23:25:11.467Z,14.48
2023-05-05T23:27:42.841Z,18.90
2023-05-05T23:30:11.372Z,12.40
2023-05-05T23:32:39.688Z,15.07
2023-05-05T23:35:09.328Z,14.35
2023-05-05T23:37:38.046Z,12.80
2023-05-05T23:40:07.717Z,12.98
2023-05-05T23:42:36.832Z,12.90
2023-05-05T23:45:05.892Z,13.70
2023-05-05T23:47:34.447Z,11.23
2023-05-05T23:50:02.784Z,14.60
2023-05-05T23:52:32.428Z,13.30
2023-05-05T23:55:00.879Z,12.85
2023-05-05T23:57:29.603Z,13.70
2023-05-05T23:59:58.489Z,12.38
